Time;durP1;ratioP1;P1;durP2;ratioP2;P2;SDS_P1;SDS_P2;PMS_P1;PMS_P2;Temp;Humidity;BMP_temperature;BMP_pressure;BME280_temperature;BME280_humidity;BME280_pressure;Samples;Min_cycle;Max_cycle;Signal;HPM_P1;HPM_P2
2024/02/28 00:00:10;;;;;;;2.63;2.05;;;;;;;4.38;100.00;101250.03;5094052;28;20339;-66
2024/02/28 00:02:39;;;;;;;4.40;2.90;;;;;;;4.40;100.00;101255.22;5092986;28;20587;-67
2024/02/28 00:05:08;;;;;;;5.65;4.05;;;;;;;4.41;100.00;101249.69;5095011;28;20233;-68
2024/02/28 00:07:37;;;;;;;8.55;2.80;;;;;;;4.31;100.00;101254.28;5093821;28;20293;-66
2024/02/28 00:10:08;;;;;;;8.68;3.08;;;;;;;4.33;100.00;101252.31;5095078;28;20222;-68
2024/02/28 00:12:37;;;;;;;4.70;2.75;;;;;;;4.24;100.00;101243.38;5088334;28;20282;-66
2024/02/28 00:15:10;;;;;;;3.58;3.28;;;;;;;4.25;100.00;101239.69;5095158;28;20554;-67
2024/02/28 00:17:41;;;;;;;2.60;1.73;;;;;;;4.22;100.00;101244.50;5090310;28;20546;-67
2024/02/28 00:20:11;;;;;;;2.78;2.45;;;;;;;4.22;100.00;101244.50;5088055;28;20217;-67
2024/02/28 00:22:40;;;;;;;9.40;5.45;;;;;;;4.25;100.00;101246.88;5083348;28;20225;-66
2024/02/28 00:25:11;;;;;;;3.35;2.95;;;;;;;4.23;100.00;101244.34;5086281;28;20757;-67
2024/02/28 00:27:40;;;;;;;6.63;2.67;;;;;;;4.14;100.00;101241.75;5090994;28;20189;-67
2024/02/28 00:30:09;;;;;;;4.72;2.72;;;;;;;4.24;100.00;101247.88;5095251;28;20218;-67
2024/02/28 00:32:38;;;;;;;2.30;1.75;;;;;;;4.25;100.00;101250.41;5094645;28;20217;-67
2024/02/28 00:35:08;;;;;;;2.97;2.10;;;;;;;4.30;100.00;101242.75;5094748;28;20178;-68
2024/02/28 00:37:36;;;;;;;3.40;3.10;;;;;;;4.24;100.00;101247.88;5094423;28;20250;-67
2024/02/28 00:40:06;;;;;;;2.88;2.10;;;;;;;4.24;100.00;101247.88;5088842;28;20236;-67
2024/02/28 00:42:36;;;;;;;6.68;5.00;;;;;;;4.30;100.00;101244.59;5094252;28;20228;-67
2024/02/28 00:45:06;;;;;;;3.15;2.00;;;;;;;4.37;100.00;101243.81;5094638;28;20319;-68
2024/02/28 00:47:34;;;;;;;9.40;3.50;;;;;;;4.34;100.00;101243.28;5094845;28;20195;-66
2024/02/28 00:50:03;;;;;;;2.72;2.42;;;;;;;4.33;100.00;101241.59;5089744;28;20218;-66
2024/02/28 00:52:32;;;;;;;5.20;2.85;;;;;;;4.28;100.00;101243.88;5092962;28;20268;-65
2024/02/28 00:55:01;;;;;;;1.70;1.15;;;;;;;4.11;100.00;101234.88;5094385;28;20246;-66
2024/02/28 00:57:30;;;;;;;3.13;2.35;;;;;;;4.12;100.00;101241.88;5089389;28;20210;-67
2024/02/28 01:00:00;;;;;;;2.15;1.95;;;;;;;4.24;100.00;101242.53;5082242;28;20206;-67
2024/02/28 01:02:29;;;;;;;5.47;3.10;;;;;;;4.16;100.00;101242.44;5093355;28;20687;-65
2024/02/28 01:04:58;;;;;;;6.55;2.63;;;;;;;4.11;100.00;101239.38;5092665;28;20740;-65
2024/02/28 01:07:27;;;;;;;4.63;1.75;;;;;;;4.09;100.00;101238.69;5092584;28;20537;-64
2024/02/28 01:09:55;;;;;;;4.07;3.78;;;;;;;4.07;100.00;101246.00;5093733;28;20219;-65
2024/02/28 01:12:24;;;;;;;5.03;3.03;;;;;;;4.11;100.00;101242.06;5086220;28;20196;-64
2024/02/28 01:14:53;;;;;;;4.78;3.42;;;;;;;4.25;100.00;101249.56;5084632;28;20587;-66
2024/02/28 01:17:23;;;;;;;4.78;2.90;;;;;;;4.37;100.00;101254.53;5091049;28;20208;-65
2024/02/28 01:19:52;;;;;;;3.40;1.92;;;;;;;4.39;100.00;101251.72;5093339;28;20220;-64
2024/02/28 01:22:20;;;;;;;2.35;1.85;;;;;;;4.35;100.00;101253.03;5092824;28;20218;-65
2024/02/28 01:24:49;;;;;;;5.10;1.38;;;;;;;4.34;100.00;101260.22;5091052;28;20195;-64
2024/02/28 01:27:18;;;;;;;4.97;1.30;;;;;;;4.17;100.00;101257.50;5090258;28;20201;-65
2024/02/28 01:29:47;;;;;;;5.75;2.25;;;;;;;3.95;100.00;101258.78;5089713;28;20307;-62
2024/02/28 01:32:15;;;;;;;3.50;3.20;;;;;;;4.05;100.00;101248.00;5089662;28;20245;-64
2024/02/28 01:34:45;;;;;;;4.63;2.10;;;;;;;3.89;100.00;101254.88;5086838;28;20244;-66
2024/02/28 01:37:14;;;;;;;7.45;2.58;;;;;;;3.92;100.00;101248.41;5094147;28;20231;-64
2024/02/28 01:39:43;;;;;;;4.72;3.53;;;;;;;4.05;100.00;101246.19;5093517;28;20222;-63
2024/02/28 01:42:12;;;;;;;3.92;3.47;;;;;;;4.08;100.00;101247.69;5095651;28;20195;-64
2024/02/28 01:44:45;;;;;;;3.25;2.75;;;;;;;4.11;100.00;101247.41;5088863;28;20199;-63
2024/02/28 01:47:14;;;;;;;3.65;2.95;;;;;;;4.08;100.00;101237.84;5092781;28;20259;-63
2024/02/28 01:49:47;;;;;;;2.05;1.90;;;;;;;4.10;100.00;101240.38;5088437;28;20214;-64
2024/02/28 01:52:16;;;;;;;3.20;1.98;;;;;;;3.98;100.00;101239.72;5092300;28;20189;-63
2024/02/28 01:54:45;;;;;;;4.57;2.42;;;;;;;4.00;100.00;101235.09;5083742;28;20254;-64
2024/02/28 01:57:14;;;;;;;5.20;2.20;;;;;;;4.13;100.00;101242.72;5093225;28;20178;-64
2024/02/28 01:59:43;;;;;;;3.67;2.45;;;;;;;4.14;100.00;101242.59;5085171;28;20217;-65
2024/02/28 02:02:12;;;;;;;5.00;3.55;;;;;;;4.26;100.00;101240.53;5084906;28;20186;-64
2024/02/28 02:04:40;;;;;;;1.50;1.40;;;;;;;4.27;100.00;101242.19;5087889;28;20198;-63
2024/02/28 02:07:10;;;;;;;3.38;1.67;;;;;;;4.28;100.00;101239.38;5088419;28;20759;-63
2024/02/28 02:09:40;;;;;;;5.50;1.95;;;;;;;4.20;100.00;101251.84;5093059;28;20703;-64
2024/02/28 02:12:09;;;;;;;1.75;1.63;;;;;;;4.14;100.00;101244.41;5093115;28;20200;-63
2024/02/28 02:14:38;;;;;;;2.63;2.17;;;;;;;4.12;100.00;101243.72;5092132;28;20217;-65
2024/02/28 02:17:06;;;;;;;5.25;4.10;;;;;;;4.16;100.00;101239.78;5090787;28;20196;-63
2024/02/28 02:19:35;;;;;;;4.70;2.17;;;;;;;4.29;100.00;101245.59;5089317;28;20242;-66
2024/02/28 02:22:06;;;;;;;3.47;1.83;;;;;;;4.32;100.00;101247.94;5083497;28;20258;-61
2024/02/28 02:24:36;;;;;;;1.00;0.88;;;;;;;4.31;100.00;101248.94;5087229;28;20248;-63
2024/02/28 02:27:05;;;;;;;3.10;1.77;;;;;;;4.22;100.00;101249.84;5094164;28;20202;-65
2024/02/28 02:29:34;;;;;;;5.35;2.53;;;;;;;4.15;100.00;101259.50;5094121;28;20751;-64
2024/02/28 02:32:03;;;;;;;3.08;1.42;;;;;;;4.05;100.00;101254.22;5094409;28;20192;-65
2024/02/28 02:34:32;;;;;;;5.75;2.75;;;;;;;4.03;100.00;101263.38;5091894;28;20198;-63
2024/02/28 02:37:00;;;;;;;3.65;1.35;;;;;;;4.08;100.00;101261.09;5087122;28;20274;-64
2024/02/28 02:39:29;;;;;;;1.25;0.73;;;;;;;4.09;100.00;101265.47;5089624;28;20227;-64
2024/02/28 02:41:59;;;;;;;3.10;2.25;;;;;;;3.93;100.00;101261.59;5090302;28;20205;-63
2024/02/28 02:44:28;;;;;;;2.80;1.25;;;;;;;3.90;100.00;101271.78;5084122;28;20205;-61
2024/02/28 02:46:56;;;;;;;4.85;1.83;;;;;;;3.88;100.00;101279.13;5084396;28;20206;-65
2024/02/28 02:49:25;;;;;;;5.20;2.30;;;;;;;3.74;100.00;101277.78;5090819;28;20217;-63
2024/02/28 02:51:54;;;;;;;6.03;2.40;;;;;;;3.92;100.00;101278.66;5084943;28;20196;-64
2024/02/28 02:57:00;;;;;;;1.98;1.88;;;;;;;4.04;100.00;101289.19;5090676;28;20303;-63
2024/02/28 02:59:29;;;;;;;2.85;1.67;;;;;;;3.98;100.00;101290.59;5089836;28;20700;-62
2024/02/28 03:01:58;;;;;;;1.63;1.52;;;;;;;3.89;100.00;101287.00;5086991;28;20189;-62
2024/02/28 03:04:26;;;;;;;2.45;1.90;;;;;;;4.01;100.00;101282.28;5092521;28;20852;-62
2024/02/28 03:06:55;;;;;;;2.13;1.48;;;;;;;3.90;100.00;101283.34;5092609;28;20204;-61
2024/02/28 03:09:24;;;;;;;4.75;2.28;;;;;;;4.03;100.00;101292.84;5087907;28;20221;-67
2024/02/28 03:11:53;;;;;;;1.67;1.42;;;;;;;4.17;100.00;101305.72;5092446;28;20194;-65
2024/02/28 03:14:25;;;;;;;2.35;0.73;;;;;;;4.07;100.00;101299.56;5092715;28;20194;-64
2024/02/28 03:16:53;;;;;;;8.40;2.67;;;;;;;4.18;100.00;101302.06;5086970;28;20183;-65
2024/02/28 03:19:22;;;;;;;4.22;1.38;;;;;;;3.98;100.00;101297.81;5093783;28;20861;-65
2024/02/28 03:21:51;;;;;;;1.98;1.30;;;;;;;3.73;100.00;101297.50;5094321;28;20563;-64
2024/02/28 03:24:20;;;;;;;1.45;1.35;;;;;;;3.67;100.00;101295.44;5094510;28;20205;-64
2024/02/28 03:26:49;;;;;;;1.88;0.80;;;;;;;3.77;100.00;101288.22;5087381;28;20675;-64
2024/02/28 03:29:17;;;;;;;2.15;1.55;;;;;;;3.76;100.00;101291.03;5093735;28;20243;-63
2024/02/28 03:31:47;;;;;;;0.80;0.60;;;;;;;3.62;100.00;101288.84;5093605;28;20730;-63
2024/02/28 03:34:16;;;;;;;3.13;1.52;;;;;;;3.61;100.00;101293.34;5094205;28;20186;-62
2024/02/28 03:36:45;;;;;;;8.13;1.55;;;;;;;3.64;100.00;101292.19;5094599;28;20190;-64
2024/02/28 03:39:14;;;;;;;2.08;1.85;;;;;;;3.67;100.00;101295.44;5093987;28;20228;-66
2024/02/28 03:41:43;;;;;;;0.90;0.80;;;;;;;3.59;100.00;101292.63;5092542;28;20209;-63
2024/02/28 03:44:12;;;;;;;2.85;2.28;;;;;;;3.68;100.00;101289.06;5094465;28;20194;-64
2024/02/28 03:46:41;;;;;;;5.47;2.00;;;;;;;3.69;100.00;101290.75;5085184;28;20209;-64
2024/02/28 03:49:11;;;;;;;0.80;0.50;;;;;;;3.77;100.00;101292.72;5095775;28;20210;-64
2024/02/28 03:51:41;;;;;;;1.73;1.60;;;;;;;3.77;100.00;101293.56;5096180;28;20227;-63
2024/02/28 03:54:10;;;;;;;1.90;0.70;;;;;;;3.94;100.00;101290.06;5096353;28;20197;-64
2024/02/28 03:56:39;;;;;;;1.33;0.98;;;;;;;3.88;100.00;101301.38;5113434;28;20201;-65
2024/02/28 03:59:08;;;;;;;2.20;1.80;;;;;;;4.13;100.00;101297.16;5097602;28;20233;-64
2024/02/28 04:01:37;;;;;;;1.23;1.13;;;;;;;4.08;100.00;101301.25;5096493;28;20193;-62
2024/02/28 04:04:07;;;;;;;1.63;1.17;;;;;;;4.07;100.00;101299.56;5094692;28;20233;-64
2024/02/28 04:06:37;;;;;;;1.30;0.75;;;;;;;4.00;100.00;101304.72;5089817;28;20202;-66
2024/02/28 04:09:14;;;;;;;2.17;1.80;;;;;;;4.16;100.00;101307.59;5098390;28;20218;-67
2024/02/28 04:11:43;;;;;;;0.90;0.70;;;;;;;4.17;100.00;101305.72;5105689;28;20577;-66
2024/02/28 04:14:11;;;;;;;1.13;0.90;;;;;;;4.09;100.00;101308.31;5107622;28;20214;-67
2024/02/28 04:16:44;;;;;;;1.50;1.00;;;;;;;4.18;100.00;101308.25;5105342;28;20198;-67
2024/02/28 04:19:13;;;;;;;4.30;2.25;;;;;;;4.32;100.00;101306.88;5102524;28;20628;-67
2024/02/28 04:21:43;;;;;;;1.55;0.93;;;;;;;4.23;100.00;101311.31;5099096;28;20196;-67
2024/02/28 04:24:10;;;;;;;1.48;1.30;;;;;;;4.29;100.00;101301.84;5098968;28;20289;-67
2024/02/28 04:26:42;;;;;;;1.25;1.00;;;;;;;4.48;100.00;101312.41;5100121;28;20269;-67
2024/02/28 04:29:13;;;;;;;1.10;0.98;;;;;;;4.50;100.00;101312.28;5096812;28;20222;-67
2024/02/28 04:31:43;;;;;;;1.60;1.27;;;;;;;4.50;100.00;101318.50;5097076;28;20199;-67
2024/02/28 04:34:11;;;;;;;1.35;1.25;;;;;;;4.50;100.00;101323.84;5096364;28;20660;-66
2024/02/28 04:36:41;;;;;;;1.40;1.20;;;;;;;4.44;100.00;101319.09;5097692;28;20200;-66
2024/02/28 04:39:10;;;;;;;2.60;1.63;;;;;;;4.42;100.00;101318.38;5094151;28;20263;-66
2024/02/28 04:41:39;;;;;;;1.20;0.93;;;;;;;4.27;100.00;101333.28;5094660;28;20206;-67
2024/02/28 04:44:07;;;;;;;3.63;1.55;;;;;;;4.35;100.00;101328.88;5095310;28;20183;-68
2024/02/28 04:46:38;;;;;;;1.00;0.75;;;;;;;4.30;100.00;101338.38;5094883;28;20298;-66
2024/02/28 04:49:08;;;;;;;3.05;1.60;;;;;;;4.13;100.00;101341.84;5095498;28;20551;-67
2024/02/28 04:51:37;;;;;;;1.55;1.45;;;;;;;4.25;100.00;101351.38;5095682;28;20966;-66
2024/02/28 04:54:07;;;;;;;1.65;1.13;;;;;;;4.01;100.00;101343.03;5093593;28;20270;-68
2024/02/28 04:56:41;;;;;;;1.65;1.20;;;;;;;4.06;100.00;101341.63;5086611;28;20222;-66
2024/02/28 04:59:10;;;;;;;2.15;1.73;;;;;;;4.31;100.00;101340.03;5099307;28;20231;-67
2024/02/28 05:01:41;;;;;;;1.77;1.67;;;;;;;4.12;100.00;101340.16;5096893;28;20194;-67
2024/02/28 05:04:10;;;;;;;4.45;1.85;;;;;;;3.99;100.00;101347.69;5093179;28;20224;-66
2024/02/28 05:06:39;;;;;;;1.60;1.23;;;;;;;4.11;100.00;101350.03;5098696;28;20263;-67
2024/02/28 05:09:10;;;;;;;2.20;2.00;;;;;;;4.11;100.00;101338.47;5092731;28;20222;-67
2024/02/28 05:11:38;;;;;;;1.88;1.77;;;;;;;4.00;100.00;101347.56;5093126;28;20201;-67
2024/02/28 05:14:07;;;;;;;2.55;1.98;;;;;;;4.06;100.00;101356.84;5088914;28;20186;-67
2024/02/28 05:16:36;;;;;;;2.75;2.50;;;;;;;4.16;100.00;101357.63;5092826;28;20191;-67
2024/02/28 05:19:05;;;;;;;2.42;2.00;;;;;;;4.15;100.00;101361.28;5094659;28;20730;-66
2024/02/28 05:21:40;;;;;;;2.03;0.98;;;;;;;4.15;100.00;101370.19;5094349;28;20239;-67
2024/02/28 05:24:10;;;;;;;2.75;1.30;;;;;;;3.96;100.00;101370.28;5088259;28;20562;-66
2024/02/28 05:26:39;;;;;;;0.90;0.80;;;;;;;4.08;100.00;101371.75;5092296;28;20221;-67
2024/02/28 05:29:08;;;;;;;3.83;1.17;;;;;;;4.00;100.00;101368.97;5088396;28;20222;-68
2024/02/28 05:31:38;;;;;;;2.17;1.67;;;;;;;4.20;100.00;101377.75;5082514;28;20194;-66
2024/02/28 05:34:06;;;;;;;2.25;1.70;;;;;;;4.47;100.00;101375.06;5090205;28;20272;-69
2024/02/28 05:36:35;;;;;;;4.53;4.10;;;;;;;4.39;100.00;101369.63;5089648;28;20243;-65
2024/02/28 05:39:05;;;;;;;1.17;1.08;;;;;;;4.38;100.00;101367.91;5090647;28;20218;-65
2024/02/28 05:41:35;;;;;;;1.63;1.50;;;;;;;4.48;100.00;101373.22;5092471;28;20194;-67
2024/02/28 05:44:04;;;;;;;3.33;1.75;;;;;;;4.62;100.00;101378.91;5091039;28;20680;-68
2024/02/28 05:46:33;;;;;;;5.25;3.47;;;;;;;4.63;100.00;101377.91;5093306;28;20198;-67
2024/02/28 05:49:01;;;;;;;8.57;2.53;;;;;;;4.44;100.00;101382.56;5093325;28;20228;-68
2024/02/28 05:51:30;;;;;;;1.63;0.80;;;;;;;4.46;100.00;101386.75;5093241;28;20195;-66
2024/02/28 05:53:59;;;;;;;1.42;1.33;;;;;;;4.39;100.00;101383.00;5101407;28;20232;-67
2024/02/28 05:56:28;;;;;;;2.95;1.80;;;;;;;4.51;100.00;101394.34;5091922;28;20744;-68
2024/02/28 05:58:58;;;;;;;3.35;1.33;;;;;;;4.32;100.00;101400.66;5092063;28;20260;-68
2024/02/28 06:01:26;;;;;;;1.00;0.80;;;;;;;4.33;100.00;101405.03;5093251;28;20188;-66
2024/02/28 06:03:55;;;;;;;2.47;1.58;;;;;;;4.13;100.00;101408.81;5084980;28;20757;-65
2024/02/28 06:06:25;;;;;;;2.55;2.08;;;;;;;4.07;100.00;101418.25;5093203;28;20191;-66
2024/02/28 06:08:54;;;;;;;1.10;0.73;;;;;;;4.18;100.00;101427.94;5092970;28;20215;-68
2024/02/28 06:11:23;;;;;;;1.60;1.10;;;;;;;4.11;100.00;101427.72;5092909;28;20190;-66
2024/02/28 06:13:53;;;;;;;2.28;1.25;;;;;;;4.10;100.00;101431.38;5084467;28;20282;-67
2024/02/28 06:16:23;;;;;;;8.70;2.55;;;;;;;4.13;100.00;101435.59;5093783;28;20194;-68
2024/02/28 06:18:52;;;;;;;0.90;0.60;;;;;;;4.07;100.00;101428.13;5074926;28;20208;-67
2024/02/28 06:21:23;;;;;;;3.20;2.08;;;;;;;4.18;100.00;101436.00;5090128;28;20183;-67
2024/02/28 06:23:52;;;;;;;4.63;1.90;;;;;;;4.26;100.00;101438.78;5092675;28;20187;-65
2024/02/28 06:26:20;;;;;;;2.00;1.27;;;;;;;4.27;100.00;101441.31;5091375;28;20276;-67
2024/02/28 06:28:50;;;;;;;3.08;2.78;;;;;;;4.11;100.00;101450.97;5090260;28;20312;-67
2024/02/28 06:31:20;;;;;;;2.17;1.88;;;;;;;4.05;100.00;101440.84;5086197;28;20195;-67
2024/02/28 06:33:50;;;;;;;4.53;1.90;;;;;;;4.17;100.00;101445.00;5092702;28;20194;-67
2024/02/28 06:36:19;;;;;;;5.65;1.70;;;;;;;4.15;100.00;101442.50;5091285;28;20202;-67
2024/02/28 06:38:47;;;;;;;1.55;1.40;;;;;;;4.13;100.00;101448.97;5092406;28;20248;-66
2024/02/28 06:41:17;;;;;;;3.00;2.08;;;;;;;4.22;100.00;101445.41;5092514;28;20562;-67
2024/02/28 06:43:46;;;;;;;12.02;4.05;;;;;;;4.18;100.00;101449.38;5084425;28;20277;-68
2024/02/28 06:46:15;;;;;;;4.30;1.70;;;;;;;4.28;100.00;101450.19;5084062;28;20194;-66
2024/02/28 06:48:44;;;;;;;1.20;1.08;;;;;;;4.22;100.00;101459.66;5091355;28;20261;-67
2024/02/28 06:51:14;;;;;;;1.45;1.05;;;;;;;3.81;100.00;101471.66;5091823;28;20194;-67
2024/02/28 06:53:45;;;;;;;2.50;2.38;;;;;;;3.75;100.00;101469.53;5087416;28;20204;-67
2024/02/28 06:56:14;;;;;;;2.00;1.48;;;;;;;3.68;100.00;101463.06;5086681;28;20198;-66
2024/02/28 06:58:43;;;;;;;2.75;1.58;;;;;;;3.69;100.00;101470.09;5091093;28;20637;-67
2024/02/28 07:01:11;;;;;;;1.10;0.85;;;;;;;3.53;100.00;101467.19;5084980;28;20307;-66
2024/02/28 07:03:40;;;;;;;3.92;1.30;;;;;;;3.55;100.00;101473.22;5089661;28;20190;-66
2024/02/28 07:06:09;;;;;;;5.03;2.95;;;;;;;3.53;100.00;101477.03;5092650;28;20190;-67
2024/02/28 07:08:39;;;;;;;1.50;1.10;;;;;;;3.69;100.00;101477.28;5092384;28;20221;-67
2024/02/28 07:11:14;;;;;;;5.38;3.42;;;;;;;3.88;100.00;101482.59;5092192;28;20239;-67
2024/02/28 07:13:43;;;;;;;1.83;1.73;;;;;;;3.88;100.00;101482.59;5084398;28;20192;-67
2024/02/28 07:16:12;;;;;;;3.35;2.65;;;;;;;3.91;100.00;101482.34;5083760;28;20546;-67
2024/02/28 07:18:41;;;;;;;10.25;9.25;;;;;;;3.93;100.00;101478.50;5089791;28;20293;-67
2024/02/28 07:21:09;;;;;;;3.05;1.60;;;;;;;4.12;100.00;101482.09;5091379;28;20256;-66
2024/02/28 07:23:42;;;;;;;3.17;1.48;;;;;;;4.02;100.00;101478.66;5094664;28;20526;-67
2024/02/28 07:26:16;;;;;;;1.92;1.75;;;;;;;4.05;100.00;101475.66;5091124;28;20205;-67
2024/02/28 07:28:54;;;;;;;4.15;1.55;;;;;;;4.10;100.00;101473.38;5095915;28;20281;-67
2024/02/28 07:31:23;;;;;;;3.10;1.65;;;;;;;4.15;100.00;101476.47;5092578;28;20198;-68
2024/02/28 07:33:52;;;;;;;15.15;3.58;;;;;;;4.19;100.00;101475.19;5094249;28;20226;-68
2024/02/28 07:36:21;;;;;;;6.10;1.65;;;;;;;4.19;100.00;101475.19;5095811;28;20198;-67
2024/02/28 07:38:52;;;;;;;1.80;1.55;;;;;;;4.08;100.00;101473.53;5081933;28;20272;-68
2024/02/28 07:41:21;;;;;;;1.90;1.48;;;;;;;4.04;100.00;101476.66;5094862;28;20197;-67
2024/02/28 07:43:50;;;;;;;4.63;1.50;;;;;;;3.79;100.00;101484.31;5088314;28;20226;-67
2024/02/28 07:46:19;;;;;;;1.88;0.82;;;;;;;3.67;100.00;101480.13;5091519;28;20611;-68
2024/02/28 07:48:48;;;;;;;1.63;1.45;;;;;;;3.77;100.00;101490.81;5099954;28;20772;-68
2024/02/28 07:51:18;;;;;;;3.92;1.15;;;;;;;3.87;100.00;101495.13;5087319;28;20252;-67
2024/02/28 07:53:47;;;;;;;1.23;0.70;;;;;;;3.95;100.00;101505.16;5093394;28;20663;-68
2024/02/28 07:56:21;;;;;;;1.90;1.30;;;;;;;3.99;100.00;101509.22;5094351;28;20200;-68
2024/02/28 07:58:49;;;;;;;1.10;0.65;;;;;;;4.06;100.00;101507.66;5092580;28;20670;-66
2024/02/28 08:01:18;;;;;;;2.05;1.75;;;;;;;4.01;100.00;101512.63;5084327;28;20194;-68
2024/02/28 08:03:47;;;;;;;2.47;1.38;;;;;;;3.90;100.00;101513.63;5093108;28;20281;-68
2024/02/28 08:06:16;;;;;;;3.70;1.65;;;;;;;3.79;100.00;101511.09;5099483;28;20208;-66
2024/02/28 08:08:46;;;;;;;2.17;1.58;;;;;;;3.78;100.00;101520.09;5094958;28;20222;-67
2024/02/28 08:11:15;;;;;;;0.95;0.65;;;;;;;3.82;100.00;101518.00;5095563;28;20191;-66
2024/02/28 08:13:45;;;;;;;2.65;1.05;;;;;;;3.64;100.00;101523.22;5087950;28;20258;-66
2024/02/28 08:16:14;;;;;;;3.42;2.13;;;;;;;3.78;100.00;101522.78;5095611;28;20680;-67
2024/02/28 08:18:44;;;;;;;1.95;1.50;;;;;;;3.68;100.00;101524.63;5090613;28;20231;-66
2024/02/28 08:21:13;;;;;;;2.05;0.75;;;;;;;3.57;100.00;101527.47;5093565;28;20197;-67
2024/02/28 08:23:51;;;;;;;2.30;1.30;;;;;;;3.51;100.00;101525.34;5095463;28;20564;-67
2024/02/28 08:26:20;;;;;;;3.85;2.60;;;;;;;3.38;100.00;101540.84;5083532;28;20194;-68
2024/02/28 08:28:49;;;;;;;5.88;1.17;;;;;;;3.56;100.00;101541.81;5094030;28;20323;-65
2024/02/28 08:31:18;;;;;;;3.53;1.80;;;;;;;3.85;100.00;101545.34;5092590;28;20653;-68
2024/02/28 08:33:47;;;;;;;2.78;1.52;;;;;;;3.98;100.00;101545.00;5088037;28;20281;-68
2024/02/28 08:36:16;;;;;;;2.65;2.45;;;;;;;4.07;100.00;101552.19;5092509;28;20666;-66
2024/02/28 08:38:45;;;;;;;2.10;1.73;;;;;;;3.75;100.00;101547.16;5094638;28;20218;-66
2024/02/28 08:41:14;;;;;;;1.10;1.00;;;;;;;3.81;100.00;101548.44;5094744;28;20201;-67
2024/02/28 08:43:43;;;;;;;1.10;0.65;;;;;;;3.89;100.00;101557.44;5095455;28;20197;-67
2024/02/28 08:46:15;;;;;;;1.50;1.17;;;;;;;4.03;100.00;101553.47;5089144;28;20195;-67
2024/02/28 08:48:44;;;;;;;3.47;1.60;;;;;;;3.96;100.00;101552.38;5091567;28;20240;-66
2024/02/28 08:51:13;;;;;;;5.75;1.40;;;;;;;3.86;100.00;101555.06;5084528;28;20289;-67
2024/02/28 08:53:42;;;;;;;3.63;1.75;;;;;;;3.56;100.00;101552.53;5093293;28;20199;-68
2024/02/28 08:56:11;;;;;;;1.80;1.20;;;;;;;3.67;100.00;101554.22;5081418;28;20218;-68
2024/02/28 08:58:39;;;;;;;4.43;4.13;;;;;;;3.50;100.00;101548.59;5091958;28;20294;-68
2024/02/28 09:01:09;;;;;;;3.80;2.40;;;;;;;3.68;100.00;101540.69;5094076;28;20269;-67
2024/02/28 09:03:39;;;;;;;1.65;1.13;;;;;;;3.74;100.00;101533.91;5094343;28;20661;-67
2024/02/28 09:06:08;;;;;;;1.55;1.45;;;;;;;3.76;100.00;101538.16;5089656;28;20205;-67
2024/02/28 09:08:36;;;;;;;6.65;1.80;;;;;;;3.88;100.00;101542.34;5093964;28;20345;-67
2024/02/28 09:11:06;;;;;;;4.13;2.35;;;;;;;3.98;100.00;101544.16;5094158;28;20298;-67
2024/02/28 09:13:35;;;;;;;3.97;2.33;;;;;;;4.06;100.00;101541.63;5094182;28;20191;-66
2024/02/28 09:16:04;;;;;;;3.28;2.00;;;;;;;3.96;100.00;101546.16;5093154;28;20621;-66
2024/02/28 09:18:34;;;;;;;3.03;0.95;;;;;;;3.76;100.00;101545.34;5094279;28;20296;-66
2024/02/28 09:21:04;;;;;;;6.80;3.38;;;;;;;3.56;100.00;101541.81;5093849;28;20728;-68
2024/02/28 09:23:33;;;;;;;2.40;1.73;;;;;;;3.59;100.00;101546.88;5093975;28;20197;-66
2024/02/28 09:26:04;;;;;;;4.72;2.88;;;;;;;3.90;100.00;101555.59;5094065;28;20194;-67
2024/02/28 09:28:33;;;;;;;1.05;0.70;;;;;;;3.68;100.00;101546.03;5094262;28;20710;-67
2024/02/28 09:31:03;;;;;;;11.88;2.05;;;;;;;3.89;100.00;101560.13;5093680;28;20205;-67
2024/02/28 09:33:35;;;;;;;1.60;1.50;;;;;;;3.79;100.00;101553.94;5087028;28;20202;-67
2024/02/28 09:36:06;;;;;;;2.35;2.08;;;;;;;3.96;100.00;101559.56;5091583;28;20190;-68
2024/02/28 09:38:35;;;;;;;1.42;1.33;;;;;;;4.06;100.00;101565.75;5088042;28;20214;-65
2024/02/28 09:41:04;;;;;;;5.85;1.70;;;;;;;3.67;100.00;101572.97;5087989;28;20194;-67
2024/02/28 09:48:56;;;;;;;1.48;1.35;;;;;;;3.24;100.00;101573.34;5091273;28;20189;-67
2024/02/28 09:51:27;;;;;;;1.33;1.23;;;;;;;3.26;100.00;101566.03;5089749;28;20197;-67
2024/02/28 09:53:57;;;;;;;4.28;3.40;;;;;;;3.29;100.00;101565.75;5093479;28;20184;-67
2024/02/28 09:56:27;;;;;;;4.50;3.63;;;;;;;3.32;100.00;101573.50;5090736;28;20533;-68
2024/02/28 09:58:56;;;;;;;2.35;1.85;;;;;;;3.59;100.00;101580.84;5086868;28;20235;-66
2024/02/28 10:01:26;;;;;;;3.95;0.90;;;;;;;3.53;100.00;101582.25;5094124;28;20202;-68
2024/02/28 10:03:56;;;;;;;2.75;1.27;;;;;;;3.82;100.00;101580.44;5086332;28;20245;-68
2024/02/28 10:06:26;;;;;;;1.85;1.58;;;;;;;3.74;100.00;101592.81;5089990;28;20190;-68
2024/02/28 10:08:55;;;;;;;1.98;0.95;;;;;;;3.63;100.00;101585.75;5093676;28;20221;-65
2024/02/28 10:11:25;;;;;;;3.92;3.63;;;;;;;3.69;100.00;101592.38;5089929;28;20338;-69
2024/02/28 10:13:55;;;;;;;7.32;2.08;;;;;;;3.78;100.00;101594.22;5093375;28;20603;-66
2024/02/28 10:16:24;;;;;;;3.88;2.00;;;;;;;3.74;100.00;101592.81;5093783;28;20221;-67
2024/02/28 10:18:53;;;;;;;2.40;1.35;;;;;;;3.94;100.00;101602.53;5093394;28;20580;-67
2024/02/28 10:21:23;;;;;;;6.72;1.83;;;;;;;3.72;100.00;101598.31;5089300;28;20699;-68
2024/02/28 10:23:53;;;;;;;3.45;1.52;;;;;;;3.73;100.00;101608.03;5093505;28;20201;-68
2024/02/28 10:26:22;;;;;;;3.95;3.00;;;;;;;3.61;100.00;101606.50;5094023;28;20245;-67
2024/02/28 10:28:52;;;;;;;2.78;1.52;;;;;;;3.51;100.00;101608.31;5091836;28;20247;-65
2024/02/28 10:31:22;;;;;;;2.95;1.90;;;;;;;3.56;100.00;101611.41;5089759;28;20205;-66
2024/02/28 10:33:51;;;;;;;4.68;2.65;;;;;;;3.82;100.00;101601.84;5085137;28;20290;-67
2024/02/28 10:36:20;;;;;;;2.22;1.45;;;;;;;3.99;100.00;101611.00;5084864;28;20673;-66
2024/02/28 10:38:49;;;;;;;3.25;2.85;;;;;;;3.74;100.00;101607.03;5084730;28;20218;-67
2024/02/28 10:41:20;;;;;;;4.40;3.25;;;;;;;3.72;100.00;101618.91;5092961;28;20193;-66
2024/02/28 10:43:50;;;;;;;1.73;1.50;;;;;;;3.69;100.00;101614.66;5094183;28;20273;-67
2024/02/28 10:46:21;;;;;;;3.80;1.50;;;;;;;3.87;100.00;101604.91;5094397;28;20275;-67
2024/02/28 10:49:04;;;;;;;6.72;2.20;;;;;;;3.99;100.00;101612.81;5092402;28;20208;-67
2024/02/28 10:51:36;;;;;;;4.95;2.67;;;;;;;3.98;100.00;101611.97;5092312;28;20282;-66
2024/02/28 10:54:11;;;;;;;3.65;2.75;;;;;;;4.16;100.00;101609.44;5088572;28;20193;-67
2024/02/28 10:56:42;;;;;;;6.75;2.42;;;;;;;4.20;100.00;101618.88;5093782;28;20197;-65
2024/02/28 10:59:12;;;;;;;2.42;2.17;;;;;;;4.18;100.00;101627.03;5096471;28;20249;-66
2024/02/28 11:01:44;;;;;;;6.30;3.28;;;;;;;4.13;100.00;101625.78;5097000;28;20672;-66
2024/02/28 11:04:14;;;;;;;3.95;2.80;;;;;;;4.21;100.00;101615.22;5086806;28;20205;-66
2024/02/28 11:06:52;;;;;;;7.13;2.63;;;;;;;4.40;99.14;101625.88;5096607;28;20207;-67
2024/02/28 11:09:25;;;;;;;4.25;1.73;;;;;;;4.26;99.12;101623.66;5096624;28;20242;-66
2024/02/28 11:11:59;;;;;;;3.25;2.42;;;;;;;4.23;99.42;101624.78;5088151;28;20209;-66
2024/02/28 11:14:29;;;;;;;6.43;3.00;;;;;;;4.37;98.87;101620.78;5087692;28;20210;-66
2024/02/28 11:17:04;;;;;;;6.40;3.47;;;;;;;4.40;98.69;101619.69;5096141;28;20721;-66
2024/02/28 11:19:34;;;;;;;6.18;2.60;;;;;;;4.54;97.69;101619.22;5085030;28;20218;-65
2024/02/28 11:22:06;;;;;;;12.73;2.33;;;;;;;4.27;97.41;101618.13;5095128;28;20190;-68
2024/02/28 11:24:37;;;;;;;3.00;2.70;;;;;;;4.51;97.03;101625.69;5096315;28;20194;-67
2024/02/28 11:27:08;;;;;;;4.38;3.67;;;;;;;4.47;95.12;101623.44;5096062;28;20186;-67
2024/02/28 11:29:36;;;;;;;7.30;3.58;;;;;;;4.55;94.95;101624.41;5096760;28;20217;-67
2024/02/28 11:32:06;;;;;;;4.03;2.38;;;;;;;4.67;93.87;101631.31;5091845;28;20263;-66
2024/02/28 11:34:35;;;;;;;4.85;2.00;;;;;;;4.79;92.16;101624.75;5087107;28;20202;-66
2024/02/28 11:37:05;;;;;;;3.72;3.15;;;;;;;4.86;90.99;101635.75;5086960;28;20206;-67
2024/02/28 11:39:34;;;;;;;2.42;1.40;;;;;;;4.68;90.80;101627.63;5095769;28;20230;-66
2024/02/28 11:42:13;;;;;;;2.88;2.58;;;;;;;4.76;91.40;101627.75;5091683;28;20179;-67
2024/02/28 11:44:42;;;;;;;4.28;3.15;;;;;;;5.02;91.12;101629.75;5095756;28;20224;-65